»·PEaware :: N463PA KIFP-KPSP

N463PA :: KIFP-KPSP

FLIGHT INFORMATION

Flight Status: Arrived
Operator: Privately registered:
United States
More flights under this callsign
Pilot: Vinicius U. (17612)
Aircraft: PIPER PA-44 SEMINOLE
(PA44)
More flights by this aircraft type
Origin: KIFP Laughlin/Bullhead Intl
United States
Destination: KPSP Palm Springs Intl
United States
More flights between these airports :: More routes between these airports
Route: +EED V12 ZELMA V514 TNP V370 PSP
File this flight plan on PilotEdge
Remarks:
Altitude:
(Current/Filed)
F120
Speed:
(Current/Filed)
140kts
Departed: 24-Dec-17 10:11 AM
Arrived: 24-Dec-17 11:26 AM
Distance/Time
Traveled:
125nm/1:15
Distance/Time
To Go:
Arrived

Flight Plot

Page will automatically refresh every two minutes.

Flight plan parsing failed; only flown route is shown


Map Options




Map Legend


Flown Route
Filed Route
Departure Airport
Arrival Airport
Navaid (VOR, NDB)
Fix

Horizontal Profiles

Position Reports

Time Latitude Longitude Heading Altitude Ground
Speed
24-Dec-17 09:48 35.158249 -114.555799 256 698ft 0kts
24-Dec-17 09:49 35.158249 -114.555799 256 698ft 0kts
24-Dec-17 09:50 35.158249 -114.555799 256 698ft 0kts
24-Dec-17 09:51 35.158249 -114.555799 256 698ft 0kts
24-Dec-17 09:52 35.158249 -114.555799 256 698ft 0kts
24-Dec-17 09:53 35.158249 -114.555799 256 698ft 0kts
24-Dec-17 09:54 35.158249 -114.555799 256 698ft 0kts
24-Dec-17 09:55 35.158249 -114.555799 256 698ft 0kts
24-Dec-17 09:56 35.158249 -114.555799 256 698ft 0kts
24-Dec-17 09:57 35.158249 -114.555799 256 698ft 0kts
24-Dec-17 09:58 35.158249 -114.555799 256 698ft 0kts
24-Dec-17 09:59 35.158249 -114.555799 256 698ft 0kts
24-Dec-17 10:00 35.158249 -114.555799 256 698ft 0kts
24-Dec-17 10:01 35.158249 -114.555799 256 698ft 0kts
24-Dec-17 10:02 35.158249 -114.555799 256 698ft 0kts
24-Dec-17 10:03 35.158249 -114.555799 256 698ft 0kts
24-Dec-17 10:04 35.158249 -114.555799 256 698ft 0kts
24-Dec-17 10:05 35.158242 -114.555840 257 698ft 0kts
24-Dec-17 10:06 35.158241 -114.555845 257 698ft 0kts
24-Dec-17 10:07 35.158241 -114.555846 257 698ft 0kts
24-Dec-17 10:08 35.158241 -114.555847 257 698ft 0kts
24-Dec-17 10:09 35.158241 -114.555848 257 698ft 0kts
24-Dec-17 10:10 35.157833 -114.557521 268 698ft 22kts
24-Dec-17 10:11 35.152099 -114.557961 175 698ft 27kts
24-Dec-17 10:12 35.147385 -114.558114 264 698ft 0kts
24-Dec-17 10:13 35.147384 -114.558115 264 698ft 0kts
24-Dec-17 10:14 35.147384 -114.558122 264 698ft 0kts
24-Dec-17 10:15 35.147384 -114.558127 264 698ft 0kts
24-Dec-17 10:16 35.147382 -114.558145 264 698ft 1kts
24-Dec-17 10:17 35.155530 -114.559454 358 837ft 81kts
24-Dec-17 10:18 35.181774 -114.561665 358 1791ft 106kts
24-Dec-17 10:19 35.210253 -114.555716 47 2535ft 112kts
24-Dec-17 10:20 35.196867 -114.529381 168 3612ft 118kts
24-Dec-17 10:21 35.163692 -114.523617 167 4584ft 120kts
24-Dec-17 10:22 35.130196 -114.517364 163 5471ft 122kts
24-Dec-17 10:23 35.096562 -114.511511 169 6280ft 122kts
24-Dec-17 10:24 35.063770 -114.505636 171 7050ft 117kts
24-Dec-17 10:25 35.031163 -114.500710 170 7847ft 119kts
24-Dec-17 10:26 34.998633 -114.493702 167 8632ft 121kts
24-Dec-17 10:27 34.965580 -114.489933 180 9389ft 120kts
24-Dec-17 10:28 34.931601 -114.491810 181 10036ft 124kts
24-Dec-17 10:29 34.896657 -114.490272 182 10643ft 127kts
24-Dec-17 10:30 34.860710 -114.487508 170 11157ft 132kts
24-Dec-17 10:31 34.824259 -114.479773 174 11673ft 132kts
24-Dec-17 10:32 34.786993 -114.477170 181 12073ft 138kts
24-Dec-17 10:33 34.749516 -114.488072 246 12073ft 147kts
24-Dec-17 10:34 34.752744 -114.534477 287 11990ft 147kts
24-Dec-17 10:35 34.764548 -114.580863 285 12021ft 142kts
24-Dec-17 10:36 34.769490 -114.629002 278 12086ft 144kts
24-Dec-17 10:37 34.770311 -114.679403 280 11924ft 157kts
24-Dec-17 10:38 34.771816 -114.730490 275 12016ft 150kts
24-Dec-17 10:39 34.773521 -114.780373 275 12114ft 148kts
24-Dec-17 10:40 34.774141 -114.831772 274 12051ft 157kts
24-Dec-17 10:41 34.774098 -114.883807 274 12109ft 153kts
24-Dec-17 10:42 34.774068 -114.935510 274 12042ft 155kts
24-Dec-17 10:43 34.774215 -114.988788 274 11845ft 160kts
24-Dec-17 10:44 34.774935 -115.044069 274 11651ft 164kts
24-Dec-17 10:45 34.776380 -115.099560 274 11454ft 163kts
24-Dec-17 10:46 34.777906 -115.154731 274 11254ft 163kts
24-Dec-17 10:47 34.779012 -115.200774 274 11086ft 163kts
24-Dec-17 10:48 34.779696 -115.258012 274 11738ft 126kts
24-Dec-17 10:49 34.779333 -115.300148 274 12074ft 134kts
24-Dec-17 10:50 34.756897 -115.336071 201 12036ft 159kts
24-Dec-17 10:51 34.714244 -115.354975 199 11948ft 166kts
24-Dec-17 10:52 34.677479 -115.370177 200 11903ft 167kts
24-Dec-17 10:53 34.626306 -115.389914 200 11903ft 163kts
24-Dec-17 10:54 34.582878 -115.406429 200 11910ft 164kts
24-Dec-17 10:55 34.546642 -115.421008 200 11910ft 165kts
24-Dec-17 10:56 34.502912 -115.438822 200 11910ft 165kts
24-Dec-17 10:57 34.452079 -115.459514 200 11912ft 165kts
24-Dec-17 10:58 34.415423 -115.474395 200 11912ft 166kts
24-Dec-17 10:59 34.371769 -115.492386 200 11912ft 166kts
24-Dec-17 11:00 34.329986 -115.514743 223 11920ft 163kts
24-Dec-17 11:01 34.297251 -115.553022 227 11920ft 162kts
24-Dec-17 11:02 34.265017 -115.591309 227 11923ft 162kts
24-Dec-17 11:03 34.232803 -115.629600 227 11925ft 161kts
24-Dec-17 11:04 34.201362 -115.667895 227 11926ft 160kts
24-Dec-17 11:05 34.170433 -115.706806 227 11930ft 161kts
24-Dec-17 11:06 34.137566 -115.744111 222 11929ft 162kts
24-Dec-17 11:07 34.104776 -115.780612 245 11934ft 157kts
24-Dec-17 11:08 34.089695 -115.829520 246 11932ft 157kts
24-Dec-17 11:09 34.070729 -115.877068 248 11930ft 156kts
24-Dec-17 11:10 34.053592 -115.925650 249 11931ft 158kts
24-Dec-17 11:11 34.036254 -115.974460 245 11929ft 158kts
24-Dec-17 11:12 34.016422 -116.022060 246 11930ft 158kts
24-Dec-17 11:13 33.997899 -116.070369 246 11895ft 159kts
24-Dec-17 11:14 33.979632 -116.118865 246 11893ft 158kts
24-Dec-17 11:15 33.961470 -116.167200 246 11894ft 158kts
24-Dec-17 11:16 33.941104 -116.213640 210 11886ft 158kts
24-Dec-17 11:17 33.895249 -116.229178 193 11171ft 186kts
24-Dec-17 11:18 33.843789 -116.244275 193 10184ft 193kts
24-Dec-17 11:19 33.792714 -116.259439 194 9172ft 184kts
24-Dec-17 11:20 33.761992 -116.298461 281 8088ft 175kts
24-Dec-17 11:21 33.776544 -116.350626 286 7420ft 159kts
24-Dec-17 11:22 33.807282 -116.377282 21 6608ft 154kts
24-Dec-17 11:23 33.808975 -116.334715 146 5907ft 160kts
24-Dec-17 11:24 33.773320 -116.350572 255 5276ft 153kts
24-Dec-17 11:25 33.779258 -116.399808 280 4696ft 144kts
24-Dec-17 11:26 33.784846 -116.443301 279 3742ft 132kts
24-Dec-17 11:27 33.809890 -116.454552 53 2831ft 129kts
24-Dec-17 11:28 33.792001 -116.430526 201 2150ft 122kts
24-Dec-17 11:29 33.784621 -116.458519 303 1622ft 100kts
24-Dec-17 11:30 33.802557 -116.483604 324 1112ft 87kts
24-Dec-17 11:31 33.822023 -116.500801 323 495ft 76kts
24-Dec-17 11:32 33.830087 -116.506805 5 480ft 0kts
24-Dec-17 11:33 33.830409 -116.506762 8 480ft 12kts
24-Dec-17 11:34 33.824496 -116.501141 143 480ft 34kts
24-Dec-17 11:35 33.823264 -116.497266 54 480ft 10kts
24-Dec-17 11:36 33.823399 -116.497046 53 480ft 0kts
24-Dec-17 11:37 33.823399 -116.497046 53 480ft 0kts
24-Dec-17 11:38 33.823399 -116.497046 53 480ft 0kts
24-Dec-17 11:39 33.823399 -116.497046 53 480ft 0kts
24-Dec-17 11:40 33.823399 -116.497046 53 480ft 0kts
24-Dec-17 11:41 33.823399 -116.497046 53 480ft 0kts

Navigation Log

Ident Type
Flight plan parsing failed, navigation log unavailable